sensor_id;sensor_type;location;lat;lon;timestamp;P1;durP1;ratioP1;P2;durP2;ratioP2
34212;SDS011;20477;51.390;8.102;2023-12-20T00:02:19;5.38;;;4.88;;
34212;SDS011;20477;51.390;8.102;2023-12-20T00:04:48;4.65;;;4.20;;
34212;SDS011;20477;51.390;8.102;2023-12-20T00:07:15;5.03;;;4.40;;
34212;SDS011;20477;51.390;8.102;2023-12-20T00:09:43;5.80;;;4.57;;
34212;SDS011;20477;51.390;8.102;2023-12-20T00:12:10;5.45;;;4.72;;
34212;SDS011;20477;51.390;8.102;2023-12-20T00:14:37;6.18;;;5.03;;
34212;SDS011;20477;51.390;8.102;2023-12-20T00:17:05;7.47;;;5.43;;
34212;SDS011;20477;51.390;8.102;2023-12-20T00:19:33;7.38;;;6.05;;
34212;SDS011;20477;51.390;8.102;2023-12-20T00:22:04;8.93;;;7.05;;
34212;SDS011;20477;51.390;8.102;2023-12-20T00:24:31;8.55;;;7.65;;
34212;SDS011;20477;51.390;8.102;2023-12-20T00:27:00;12.23;;;8.70;;
34212;SDS011;20477;51.390;8.102;2023-12-20T00:29:27;12.55;;;10.13;;
34212;SDS011;20477;51.390;8.102;2023-12-20T00:31:54;13.40;;;9.80;;
34212;SDS011;20477;51.390;8.102;2023-12-20T00:34:22;14.40;;;11.55;;
34212;SDS011;20477;51.390;8.102;2023-12-20T00:36:49;18.08;;;11.65;;
34212;SDS011;20477;51.390;8.102;2023-12-20T00:39:18;14.68;;;11.90;;
34212;SDS011;20477;51.390;8.102;2023-12-20T00:41:45;17.33;;;14.07;;
34212;SDS011;20477;51.390;8.102;2023-12-20T00:44:13;15.18;;;12.57;;
34212;SDS011;20477;51.390;8.102;2023-12-20T00:46:40;15.43;;;12.00;;
34212;SDS011;20477;51.390;8.102;2023-12-20T00:49:08;15.02;;;11.88;;
34212;SDS011;20477;51.390;8.102;2023-12-20T00:51:35;14.07;;;10.10;;
34212;SDS011;20477;51.390;8.102;2023-12-20T00:54:02;20.58;;;11.05;;
34212;SDS011;20477;51.390;8.102;2023-12-20T00:56:32;15.40;;;8.43;;
34212;SDS011;20477;51.390;8.102;2023-12-20T00:58:59;13.90;;;8.50;;
34212;SDS011;20477;51.390;8.102;2023-12-20T01:01:26;12.30;;;8.60;;
34212;SDS011;20477;51.390;8.102;2023-12-20T01:03:54;16.05;;;9.73;;
34212;SDS011;20477;51.390;8.102;2023-12-20T01:06:21;13.95;;;8.48;;
34212;SDS011;20477;51.390;8.102;2023-12-20T01:08:49;18.15;;;9.70;;
34212;SDS011;20477;51.390;8.102;2023-12-20T01:11:17;15.10;;;8.80;;
34212;SDS011;20477;51.390;8.102;2023-12-20T01:13:46;18.35;;;9.43;;
34212;SDS011;20477;51.390;8.102;2023-12-20T01:16:13;15.50;;;9.95;;
34212;SDS011;20477;51.390;8.102;2023-12-20T01:18:42;15.93;;;8.50;;
34212;SDS011;20477;51.390;8.102;2023-12-20T01:21:09;16.00;;;8.73;;
34212;SDS011;20477;51.390;8.102;2023-12-20T01:23:36;14.57;;;9.30;;
34212;SDS011;20477;51.390;8.102;2023-12-20T01:26:04;16.40;;;8.60;;
34212;SDS011;20477;51.390;8.102;2023-12-20T01:28:31;16.38;;;8.98;;
34212;SDS011;20477;51.390;8.102;2023-12-20T01:31:00;14.50;;;9.20;;
34212;SDS011;20477;51.390;8.102;2023-12-20T01:33:27;14.75;;;8.98;;
34212;SDS011;20477;51.390;8.102;2023-12-20T01:35:55;16.80;;;9.63;;
34212;SDS011;20477;51.390;8.102;2023-12-20T01:38:22;15.93;;;10.23;;
34212;SDS011;20477;51.390;8.102;2023-12-20T01:40:49;16.30;;;9.88;;
34212;SDS011;20477;51.390;8.102;2023-12-20T01:43:16;18.35;;;10.20;;
34212;SDS011;20477;51.390;8.102;2023-12-20T01:45:46;22.75;;;12.75;;
34212;SDS011;20477;51.390;8.102;2023-12-20T01:48:15;16.30;;;10.38;;
34212;SDS011;20477;51.390;8.102;2023-12-20T01:50:43;22.85;;;13.07;;
34212;SDS011;20477;51.390;8.102;2023-12-20T01:53:12;15.95;;;10.15;;
34212;SDS011;20477;51.390;8.102;2023-12-20T01:55:39;15.88;;;10.55;;
34212;SDS011;20477;51.390;8.102;2023-12-20T01:58:08;17.88;;;9.02;;
34212;SDS011;20477;51.390;8.102;2023-12-20T02:00:36;22.10;;;9.35;;
34212;SDS011;20477;51.390;8.102;2023-12-20T02:03:04;14.25;;;9.20;;
34212;SDS011;20477;51.390;8.102;2023-12-20T02:05:33;12.00;;;7.00;;
34212;SDS011;20477;51.390;8.102;2023-12-20T02:08:02;12.38;;;7.15;;
34212;SDS011;20477;51.390;8.102;2023-12-20T02:10:30;16.88;;;6.35;;
34212;SDS011;20477;51.390;8.102;2023-12-20T02:12:58;15.35;;;7.13;;
34212;SDS011;20477;51.390;8.102;2023-12-20T02:15:25;17.33;;;7.72;;
34212;SDS011;20477;51.390;8.102;2023-12-20T02:17:53;14.43;;;6.90;;
34212;SDS011;20477;51.390;8.102;2023-12-20T02:20:21;16.70;;;5.63;;
34212;SDS011;20477;51.390;8.102;2023-12-20T02:22:50;16.30;;;6.68;;
34212;SDS011;20477;51.390;8.102;2023-12-20T02:25:17;16.90;;;7.35;;
34212;SDS011;20477;51.390;8.102;2023-12-20T02:27:45;18.25;;;6.68;;
34212;SDS011;20477;51.390;8.102;2023-12-20T02:30:13;19.60;;;6.72;;
34212;SDS011;20477;51.390;8.102;2023-12-20T02:32:41;14.73;;;4.78;;
34212;SDS011;20477;51.390;8.102;2023-12-20T02:35:10;15.85;;;5.70;;
34212;SDS011;20477;51.390;8.102;2023-12-20T02:37:38;14.18;;;5.38;;
34212;SDS011;20477;51.390;8.102;2023-12-20T02:40:08;24.35;;;6.20;;
34212;SDS011;20477;51.390;8.102;2023-12-20T02:42:35;16.02;;;4.90;;
34212;SDS011;20477;51.390;8.102;2023-12-20T02:45:03;18.63;;;5.38;;
34212;SDS011;20477;51.390;8.102;2023-12-20T02:47:31;11.73;;;4.50;;
34212;SDS011;20477;51.390;8.102;2023-12-20T02:49:58;19.90;;;5.47;;
34212;SDS011;20477;51.390;8.102;2023-12-20T02:52:27;21.13;;;4.90;;
34212;SDS011;20477;51.390;8.102;2023-12-20T02:54:54;16.98;;;5.32;;
34212;SDS011;20477;51.390;8.102;2023-12-20T02:57:23;12.68;;;5.18;;
34212;SDS011;20477;51.390;8.102;2023-12-20T02:59:50;15.07;;;4.85;;
34212;SDS011;20477;51.390;8.102;2023-12-20T03:02:17;12.55;;;5.28;;
34212;SDS011;20477;51.390;8.102;2023-12-20T03:04:45;17.67;;;5.85;;
34212;SDS011;20477;51.390;8.102;2023-12-20T03:07:12;13.35;;;5.43;;
34212;SDS011;20477;51.390;8.102;2023-12-20T03:09:39;17.05;;;5.50;;
34212;SDS011;20477;51.390;8.102;2023-12-20T03:12:28;14.30;;;5.93;;
34212;SDS011;20477;51.390;8.102;2023-12-20T03:14:55;18.42;;;6.05;;
34212;SDS011;20477;51.390;8.102;2023-12-20T03:17:23;15.18;;;5.60;;
34212;SDS011;20477;51.390;8.102;2023-12-20T03:19:50;18.17;;;5.32;;
34212;SDS011;20477;51.390;8.102;2023-12-20T03:22:17;16.35;;;4.65;;
34212;SDS011;20477;51.390;8.102;2023-12-20T03:24:44;16.88;;;5.47;;
34212;SDS011;20477;51.390;8.102;2023-12-20T03:27:11;9.25;;;3.17;;
34212;SDS011;20477;51.390;8.102;2023-12-20T03:29:40;17.60;;;4.63;;
34212;SDS011;20477;51.390;8.102;2023-12-20T03:32:07;13.98;;;4.53;;
34212;SDS011;20477;51.390;8.102;2023-12-20T03:34:35;18.73;;;3.95;;
34212;SDS011;20477;51.390;8.102;2023-12-20T03:37:03;15.70;;;4.00;;
34212;SDS011;20477;51.390;8.102;2023-12-20T03:39:30;14.32;;;3.67;;
34212;SDS011;20477;51.390;8.102;2023-12-20T03:41:57;12.77;;;2.97;;
34212;SDS011;20477;51.390;8.102;2023-12-20T03:44:25;15.27;;;4.10;;
34212;SDS011;20477;51.390;8.102;2023-12-20T03:46:53;10.57;;;3.03;;
34212;SDS011;20477;51.390;8.102;2023-12-20T03:49:20;18.52;;;3.55;;
34212;SDS011;20477;51.390;8.102;2023-12-20T03:51:48;13.27;;;3.47;;
34212;SDS011;20477;51.390;8.102;2023-12-20T03:54:16;16.40;;;3.55;;
34212;SDS011;20477;51.390;8.102;2023-12-20T03:56:43;14.38;;;3.90;;
34212;SDS011;20477;51.390;8.102;2023-12-20T03:59:10;17.50;;;4.82;;
34212;SDS011;20477;51.390;8.102;2023-12-20T04:01:38;15.40;;;4.60;;
34212;SDS011;20477;51.390;8.102;2023-12-20T04:04:06;12.10;;;4.88;;
34212;SDS011;20477;51.390;8.102;2023-12-20T04:06:34;17.63;;;5.30;;
34212;SDS011;20477;51.390;8.102;2023-12-20T04:09:01;23.55;;;5.90;;
34212;SDS011;20477;51.390;8.102;2023-12-20T04:11:29;19.02;;;5.82;;
34212;SDS011;20477;51.390;8.102;2023-12-20T04:13:56;21.73;;;5.50;;
34212;SDS011;20477;51.390;8.102;2023-12-20T04:16:24;17.80;;;5.65;;
34212;SDS011;20477;51.390;8.102;2023-12-20T04:18:51;17.73;;;6.32;;
34212;SDS011;20477;51.390;8.102;2023-12-20T04:21:20;21.92;;;6.70;;
34212;SDS011;20477;51.390;8.102;2023-12-20T04:23:47;21.60;;;6.53;;
34212;SDS011;20477;51.390;8.102;2023-12-20T04:26:14;21.10;;;7.63;;
34212;SDS011;20477;51.390;8.102;2023-12-20T04:28:41;21.73;;;6.60;;
34212;SDS011;20477;51.390;8.102;2023-12-20T04:31:09;19.23;;;6.18;;
34212;SDS011;20477;51.390;8.102;2023-12-20T04:33:36;15.25;;;5.10;;
34212;SDS011;20477;51.390;8.102;2023-12-20T04:36:03;21.63;;;5.07;;
34212;SDS011;20477;51.390;8.102;2023-12-20T04:38:32;18.80;;;5.75;;
34212;SDS011;20477;51.390;8.102;2023-12-20T04:40:59;21.25;;;5.68;;
34212;SDS011;20477;51.390;8.102;2023-12-20T04:43:27;26.02;;;6.32;;
34212;SDS011;20477;51.390;8.102;2023-12-20T04:45:54;21.58;;;6.15;;
34212;SDS011;20477;51.390;8.102;2023-12-20T04:48:22;25.48;;;5.50;;
34212;SDS011;20477;51.390;8.102;2023-12-20T04:50:49;12.95;;;5.05;;
34212;SDS011;20477;51.390;8.102;2023-12-20T04:53:16;20.38;;;4.88;;
34212;SDS011;20477;51.390;8.102;2023-12-20T04:55:45;20.60;;;5.15;;
34212;SDS011;20477;51.390;8.102;2023-12-20T04:58:12;20.55;;;4.63;;
34212;SDS011;20477;51.390;8.102;2023-12-20T05:00:41;20.50;;;4.43;;
34212;SDS011;20477;51.390;8.102;2023-12-20T05:03:08;23.45;;;5.80;;
34212;SDS011;20477;51.390;8.102;2023-12-20T05:05:37;20.95;;;4.53;;
34212;SDS011;20477;51.390;8.102;2023-12-20T05:08:05;29.35;;;5.22;;
34212;SDS011;20477;51.390;8.102;2023-12-20T05:10:33;20.85;;;4.97;;
34212;SDS011;20477;51.390;8.102;2023-12-20T05:13:02;24.88;;;5.35;;
34212;SDS011;20477;51.390;8.102;2023-12-20T05:15:29;20.10;;;5.07;;
34212;SDS011;20477;51.390;8.102;2023-12-20T05:17:56;19.95;;;4.35;;
34212;SDS011;20477;51.390;8.102;2023-12-20T05:20:23;22.58;;;5.45;;
34212;SDS011;20477;51.390;8.102;2023-12-20T05:22:51;21.63;;;4.90;;
34212;SDS011;20477;51.390;8.102;2023-12-20T05:25:19;24.05;;;5.80;;
34212;SDS011;20477;51.390;8.102;2023-12-20T05:27:47;27.23;;;6.07;;
34212;SDS011;20477;51.390;8.102;2023-12-20T05:30:16;28.33;;;5.70;;
34212;SDS011;20477;51.390;8.102;2023-12-20T05:32:43;27.70;;;5.32;;
34212;SDS011;20477;51.390;8.102;2023-12-20T05:35:11;25.20;;;5.55;;
34212;SDS011;20477;51.390;8.102;2023-12-20T05:37:38;20.20;;;4.93;;
34212;SDS011;20477;51.390;8.102;2023-12-20T05:40:06;17.73;;;5.60;;
34212;SDS011;20477;51.390;8.102;2023-12-20T05:42:33;24.90;;;6.35;;
34212;SDS011;20477;51.390;8.102;2023-12-20T05:45:01;25.00;;;6.40;;
34212;SDS011;20477;51.390;8.102;2023-12-20T05:47:29;19.30;;;5.70;;
34212;SDS011;20477;51.390;8.102;2023-12-20T05:49:57;26.10;;;8.27;;
34212;SDS011;20477;51.390;8.102;2023-12-20T05:52:24;36.47;;;6.90;;
34212;SDS011;20477;51.390;8.102;2023-12-20T05:54:51;23.58;;;5.45;;
34212;SDS011;20477;51.390;8.102;2023-12-20T05:57:19;31.83;;;6.72;;
34212;SDS011;20477;51.390;8.102;2023-12-20T05:59:46;22.52;;;5.72;;
34212;SDS011;20477;51.390;8.102;2023-12-20T06:02:13;22.05;;;6.15;;
34212;SDS011;20477;51.390;8.102;2023-12-20T06:04:43;25.10;;;6.82;;
34212;SDS011;20477;51.390;8.102;2023-12-20T06:07:11;25.25;;;7.40;;
34212;SDS011;20477;51.390;8.102;2023-12-20T06:09:38;23.05;;;7.70;;
34212;SDS011;20477;51.390;8.102;2023-12-20T06:12:07;22.73;;;7.32;;
34212;SDS011;20477;51.390;8.102;2023-12-20T06:14:35;32.65;;;7.70;;
34212;SDS011;20477;51.390;8.102;2023-12-20T06:17:02;18.23;;;6.53;;
34212;SDS011;20477;51.390;8.102;2023-12-20T06:19:30;21.45;;;6.03;;
34212;SDS011;20477;51.390;8.102;2023-12-20T06:21:58;32.38;;;6.78;;
34212;SDS011;20477;51.390;8.102;2023-12-20T06:24:26;23.80;;;6.32;;
34212;SDS011;20477;51.390;8.102;2023-12-20T06:26:54;22.13;;;6.63;;
34212;SDS011;20477;51.390;8.102;2023-12-20T06:29:22;26.02;;;6.07;;
34212;SDS011;20477;51.390;8.102;2023-12-20T06:31:49;23.67;;;7.03;;
34212;SDS011;20477;51.390;8.102;2023-12-20T06:34:16;21.15;;;6.60;;
34212;SDS011;20477;51.390;8.102;2023-12-20T06:36:44;28.80;;;7.38;;
34212;SDS011;20477;51.390;8.102;2023-12-20T06:39:13;22.65;;;6.22;;
34212;SDS011;20477;51.390;8.102;2023-12-20T06:41:40;23.88;;;5.38;;
34212;SDS011;20477;51.390;8.102;2023-12-20T06:44:08;21.02;;;5.03;;
34212;SDS011;20477;51.390;8.102;2023-12-20T06:46:36;32.55;;;7.10;;
34212;SDS011;20477;51.390;8.102;2023-12-20T06:49:03;25.33;;;6.82;;
34212;SDS011;20477;51.390;8.102;2023-12-20T06:51:31;25.98;;;7.10;;
34212;SDS011;20477;51.390;8.102;2023-12-20T06:53:59;23.55;;;5.13;;
34212;SDS011;20477;51.390;8.102;2023-12-20T06:56:28;21.75;;;6.45;;
34212;SDS011;20477;51.390;8.102;2023-12-20T06:58:55;25.27;;;5.30;;
34212;SDS011;20477;51.390;8.102;2023-12-20T07:01:23;13.68;;;4.25;;
34212;SDS011;20477;51.390;8.102;2023-12-20T07:03:50;25.58;;;6.13;;
34212;SDS011;20477;51.390;8.102;2023-12-20T07:06:18;25.40;;;5.80;;
34212;SDS011;20477;51.390;8.102;2023-12-20T07:08:46;26.98;;;5.47;;
34212;SDS011;20477;51.390;8.102;2023-12-20T07:11:13;17.02;;;4.05;;
34212;SDS011;20477;51.390;8.102;2023-12-20T07:13:42;25.95;;;4.60;;
34212;SDS011;20477;51.390;8.102;2023-12-20T07:16:09;22.52;;;4.25;;
34212;SDS011;20477;51.390;8.102;2023-12-20T07:18:36;21.08;;;5.07;;
34212;SDS011;20477;51.390;8.102;2023-12-20T07:21:04;20.02;;;4.38;;
34212;SDS011;20477;51.390;8.102;2023-12-20T07:23:31;22.63;;;3.45;;
34212;SDS011;20477;51.390;8.102;2023-12-20T07:25:59;20.75;;;4.35;;
34212;SDS011;20477;51.390;8.102;2023-12-20T07:28:26;16.42;;;3.75;;
34212;SDS011;20477;51.390;8.102;2023-12-20T07:30:55;21.85;;;5.22;;
34212;SDS011;20477;51.390;8.102;2023-12-20T07:33:22;17.48;;;4.65;;
34212;SDS011;20477;51.390;8.102;2023-12-20T07:35:51;18.48;;;4.22;;
34212;SDS011;20477;51.390;8.102;2023-12-20T07:38:19;29.67;;;6.15;;
34212;SDS011;20477;51.390;8.102;2023-12-20T07:40:47;25.40;;;4.53;;
34212;SDS011;20477;51.390;8.102;2023-12-20T07:43:14;21.55;;;4.55;;
34212;SDS011;20477;51.390;8.102;2023-12-20T07:45:42;21.52;;;3.95;;
34212;SDS011;20477;51.390;8.102;2023-12-20T07:48:10;19.98;;;4.95;;
34212;SDS011;20477;51.390;8.102;2023-12-20T07:50:38;22.45;;;5.00;;
34212;SDS011;20477;51.390;8.102;2023-12-20T07:53:05;15.68;;;4.18;;
34212;SDS011;20477;51.390;8.102;2023-12-20T07:55:33;24.95;;;4.72;;
34212;SDS011;20477;51.390;8.102;2023-12-20T07:58:00;18.75;;;4.25;;
34212;SDS011;20477;51.390;8.102;2023-12-20T08:00:28;18.75;;;4.68;;
34212;SDS011;20477;51.390;8.102;2023-12-20T08:02:56;23.77;;;5.40;;
34212;SDS011;20477;51.390;8.102;2023-12-20T08:05:25;24.27;;;6.10;;
34212;SDS011;20477;51.390;8.102;2023-12-20T08:07:52;17.77;;;4.40;;
34212;SDS011;20477;51.390;8.102;2023-12-20T08:10:20;15.68;;;4.85;;
34212;SDS011;20477;51.390;8.102;2023-12-20T08:12:47;18.42;;;4.05;;
34212;SDS011;20477;51.390;8.102;2023-12-20T08:15:14;21.90;;;4.03;;
34212;SDS011;20477;51.390;8.102;2023-12-20T08:17:42;19.55;;;4.45;;
34212;SDS011;20477;51.390;8.102;2023-12-20T08:20:10;26.63;;;4.65;;
34212;SDS011;20477;51.390;8.102;2023-12-20T08:22:43;27.63;;;5.18;;
34212;SDS011;20477;51.390;8.102;2023-12-20T08:25:11;20.42;;;4.57;;
34212;SDS011;20477;51.390;8.102;2023-12-20T08:27:39;22.58;;;5.57;;
34212;SDS011;20477;51.390;8.102;2023-12-20T08:30:08;19.60;;;4.20;;
34212;SDS011;20477;51.390;8.102;2023-12-20T08:32:35;15.48;;;4.68;;
34212;SDS011;20477;51.390;8.102;2023-12-20T08:35:04;23.95;;;5.50;;
34212;SDS011;20477;51.390;8.102;2023-12-20T08:37:32;20.05;;;4.88;;
34212;SDS011;20477;51.390;8.102;2023-12-20T08:40:00;19.63;;;4.72;;
34212;SDS011;20477;51.390;8.102;2023-12-20T08:42:27;22.23;;;5.10;;
34212;SDS011;20477;51.390;8.102;2023-12-20T08:44:55;22.50;;;4.90;;
34212;SDS011;20477;51.390;8.102;2023-12-20T08:47:22;20.90;;;3.97;;
34212;SDS011;20477;51.390;8.102;2023-12-20T08:49:50;27.02;;;5.07;;
34212;SDS011;20477;51.390;8.102;2023-12-20T08:52:17;20.80;;;5.60;;
34212;SDS011;20477;51.390;8.102;2023-12-20T08:54:46;15.50;;;4.25;;
34212;SDS011;20477;51.390;8.102;2023-12-20T08:57:14;24.08;;;5.25;;
34212;SDS011;20477;51.390;8.102;2023-12-20T08:59:42;22.48;;;5.28;;
34212;SDS011;20477;51.390;8.102;2023-12-20T09:02:09;26.90;;;5.18;;
34212;SDS011;20477;51.390;8.102;2023-12-20T09:04:36;26.73;;;4.30;;
34212;SDS011;20477;51.390;8.102;2023-12-20T09:07:04;23.80;;;4.20;;
34212;SDS011;20477;51.390;8.102;2023-12-20T09:09:31;15.63;;;4.75;;
34212;SDS011;20477;51.390;8.102;2023-12-20T09:11:59;23.38;;;4.45;;
34212;SDS011;20477;51.390;8.102;2023-12-20T09:14:28;17.52;;;4.18;;
34212;SDS011;20477;51.390;8.102;2023-12-20T09:16:56;16.23;;;4.35;;
34212;SDS011;20477;51.390;8.102;2023-12-20T09:19:23;20.10;;;4.00;;
34212;SDS011;20477;51.390;8.102;2023-12-20T09:21:51;23.70;;;5.03;;
34212;SDS011;20477;51.390;8.102;2023-12-20T09:24:18;17.50;;;4.55;;
34212;SDS011;20477;51.390;8.102;2023-12-20T09:26:46;17.20;;;4.43;;
34212;SDS011;20477;51.390;8.102;2023-12-20T09:29:13;23.33;;;4.00;;
34212;SDS011;20477;51.390;8.102;2023-12-20T09:31:41;28.55;;;5.63;;
34212;SDS011;20477;51.390;8.102;2023-12-20T09:34:09;18.25;;;4.32;;
34212;SDS011;20477;51.390;8.102;2023-12-20T09:36:37;18.42;;;5.13;;
34212;SDS011;20477;51.390;8.102;2023-12-20T09:39:04;16.55;;;4.50;;
34212;SDS011;20477;51.390;8.102;2023-12-20T09:41:32;23.58;;;7.22;;
34212;SDS011;20477;51.390;8.102;2023-12-20T09:44:02;23.90;;;5.38;;
34212;SDS011;20477;51.390;8.102;2023-12-20T09:46:30;19.30;;;5.13;;
34212;SDS011;20477;51.390;8.102;2023-12-20T09:49:00;15.35;;;3.38;;
34212;SDS011;20477;51.390;8.102;2023-12-20T09:51:28;23.52;;;5.25;;
34212;SDS011;20477;51.390;8.102;2023-12-20T09:53:56;10.45;;;3.92;;
34212;SDS011;20477;51.390;8.102;2023-12-20T09:56:24;16.25;;;4.60;;
34212;SDS011;20477;51.390;8.102;2023-12-20T09:58:52;22.85;;;4.57;;
34212;SDS011;20477;51.390;8.102;2023-12-20T10:01:20;15.65;;;4.80;;
34212;SDS011;20477;51.390;8.102;2023-12-20T10:03:48;18.50;;;4.03;;
34212;SDS011;20477;51.390;8.102;2023-12-20T10:06:20;24.95;;;4.97;;
34212;SDS011;20477;51.390;8.102;2023-12-20T10:08:48;22.33;;;5.07;;
34212;SDS011;20477;51.390;8.102;2023-12-20T10:11:15;21.67;;;4.97;;
34212;SDS011;20477;51.390;8.102;2023-12-20T10:13:43;20.05;;;4.65;;
34212;SDS011;20477;51.390;8.102;2023-12-20T10:16:11;21.05;;;4.43;;
34212;SDS011;20477;51.390;8.102;2023-12-20T10:18:38;13.95;;;3.45;;
34212;SDS011;20477;51.390;8.102;2023-12-20T10:21:06;16.42;;;4.03;;
34212;SDS011;20477;51.390;8.102;2023-12-20T10:23:35;24.52;;;5.53;;
34212;SDS011;20477;51.390;8.102;2023-12-20T10:26:02;21.75;;;4.07;;
34212;SDS011;20477;51.390;8.102;2023-12-20T10:28:33;26.33;;;5.07;;
34212;SDS011;20477;51.390;8.102;2023-12-20T10:31:01;29.33;;;5.05;;
34212;SDS011;20477;51.390;8.102;2023-12-20T10:33:30;23.80;;;5.00;;
34212;SDS011;20477;51.390;8.102;2023-12-20T10:35:59;22.10;;;3.58;;
34212;SDS011;20477;51.390;8.102;2023-12-20T10:38:27;22.95;;;4.65;;
34212;SDS011;20477;51.390;8.102;2023-12-20T10:40:56;16.33;;;3.70;;
34212;SDS011;20477;51.390;8.102;2023-12-20T10:43:24;19.88;;;4.07;;
34212;SDS011;20477;51.390;8.102;2023-12-20T10:45:54;19.75;;;2.97;;
34212;SDS011;20477;51.390;8.102;2023-12-20T10:48:22;19.83;;;3.92;;
34212;SDS011;20477;51.390;8.102;2023-12-20T10:50:49;17.90;;;5.45;;
34212;SDS011;20477;51.390;8.102;2023-12-20T10:53:17;17.38;;;4.10;;
34212;SDS011;20477;51.390;8.102;2023-12-20T10:55:45;22.83;;;4.07;;
34212;SDS011;20477;51.390;8.102;2023-12-20T10:58:14;16.05;;;4.32;;
34212;SDS011;20477;51.390;8.102;2023-12-20T11:00:41;17.60;;;3.08;;
34212;SDS011;20477;51.390;8.102;2023-12-20T11:03:11;16.50;;;3.97;;
34212;SDS011;20477;51.390;8.102;2023-12-20T11:05:41;16.17;;;3.45;;
34212;SDS011;20477;51.390;8.102;2023-12-20T11:08:17;19.02;;;3.50;;
34212;SDS011;20477;51.390;8.102;2023-12-20T11:10:49;17.27;;;4.38;;
34212;SDS011;20477;51.390;8.102;2023-12-20T11:13:22;22.95;;;4.28;;
34212;SDS011;20477;51.390;8.102;2023-12-20T11:15:50;21.10;;;4.72;;
34212;SDS011;20477;51.390;8.102;2023-12-20T11:18:18;19.50;;;4.50;;
34212;SDS011;20477;51.390;8.102;2023-12-20T11:20:45;20.75;;;4.38;;
34212;SDS011;20477;51.390;8.102;2023-12-20T11:23:13;24.98;;;4.90;;
34212;SDS011;20477;51.390;8.102;2023-12-20T11:25:47;16.85;;;3.63;;
34212;SDS011;20477;51.390;8.102;2023-12-20T11:28:14;20.67;;;4.22;;
34212;SDS011;20477;51.390;8.102;2023-12-20T11:30:44;11.77;;;2.88;;
34212;SDS011;20477;51.390;8.102;2023-12-20T11:33:13;16.38;;;4.50;;
34212;SDS011;20477;51.390;8.102;2023-12-20T11:35:40;18.88;;;5.00;;
34212;SDS011;20477;51.390;8.102;2023-12-20T11:38:08;23.05;;;5.38;;
34212;SDS011;20477;51.390;8.102;2023-12-20T11:40:35;26.85;;;5.50;;
34212;SDS011;20477;51.390;8.102;2023-12-20T11:43:03;21.65;;;4.85;;
34212;SDS011;20477;51.390;8.102;2023-12-20T11:45:30;20.35;;;4.97;;
34212;SDS011;20477;51.390;8.102;2023-12-20T11:48:00;20.30;;;4.60;;
34212;SDS011;20477;51.390;8.102;2023-12-20T11:50:28;13.82;;;4.85;;
34212;SDS011;20477;51.390;8.102;2023-12-20T11:52:56;21.58;;;5.35;;
34212;SDS011;20477;51.390;8.102;2023-12-20T11:55:25;20.30;;;4.60;;
34212;SDS011;20477;51.390;8.102;2023-12-20T11:57:52;11.85;;;4.43;;
34212;SDS011;20477;51.390;8.102;2023-12-20T12:00:21;23.05;;;5.63;;
34212;SDS011;20477;51.390;8.102;2023-12-20T12:02:55;14.23;;;3.42;;
34212;SDS011;20477;51.390;8.102;2023-12-20T12:05:23;21.60;;;4.95;;
34212;SDS011;20477;51.390;8.102;2023-12-20T12:07:51;14.25;;;4.75;;
34212;SDS011;20477;51.390;8.102;2023-12-20T12:10:19;15.88;;;5.38;;
34212;SDS011;20477;51.390;8.102;2023-12-20T12:12:47;20.42;;;4.85;;
34212;SDS011;20477;51.390;8.102;2023-12-20T12:15:15;19.10;;;6.10;;
34212;SDS011;20477;51.390;8.102;2023-12-20T12:17:42;23.80;;;5.43;;
34212;SDS011;20477;51.390;8.102;2023-12-20T12:20:10;18.80;;;5.35;;
34212;SDS011;20477;51.390;8.102;2023-12-20T12:22:38;17.17;;;4.97;;
34212;SDS011;20477;51.390;8.102;2023-12-20T12:25:09;11.93;;;4.60;;
34212;SDS011;20477;51.390;8.102;2023-12-20T12:27:37;10.73;;;3.67;;
34212;SDS011;20477;51.390;8.102;2023-12-20T12:30:04;18.27;;;4.57;;
34212;SDS011;20477;51.390;8.102;2023-12-20T12:32:32;22.85;;;4.53;;
34212;SDS011;20477;51.390;8.102;2023-12-20T12:35:00;20.17;;;4.65;;
34212;SDS011;20477;51.390;8.102;2023-12-20T12:37:27;18.13;;;5.45;;
34212;SDS011;20477;51.390;8.102;2023-12-20T12:39:56;19.35;;;6.72;;
34212;SDS011;20477;51.390;8.102;2023-12-20T12:42:23;20.98;;;6.38;;
34212;SDS011;20477;51.390;8.102;2023-12-20T12:44:51;21.73;;;5.43;;
34212;SDS011;20477;51.390;8.102;2023-12-20T12:47:18;20.70;;;5.45;;
34212;SDS011;20477;51.390;8.102;2023-12-20T12:49:45;14.02;;;4.72;;
34212;SDS011;20477;51.390;8.102;2023-12-20T12:52:12;16.70;;;5.97;;
34212;SDS011;20477;51.390;8.102;2023-12-20T12:54:40;21.88;;;6.03;;
34212;SDS011;20477;51.390;8.102;2023-12-20T12:57:09;12.95;;;3.95;;
34212;SDS011;20477;51.390;8.102;2023-12-20T12:59:37;15.30;;;4.32;;
34212;SDS011;20477;51.390;8.102;2023-12-20T13:02:06;16.67;;;3.88;;
34212;SDS011;20477;51.390;8.102;2023-12-20T13:04:33;17.92;;;5.00;;
34212;SDS011;20477;51.390;8.102;2023-12-20T13:07:01;14.73;;;4.05;;
34212;SDS011;20477;51.390;8.102;2023-12-20T13:09:28;18.27;;;5.72;;
34212;SDS011;20477;51.390;8.102;2023-12-20T13:11:56;14.05;;;4.03;;
34212;SDS011;20477;51.390;8.102;2023-12-20T13:14:26;18.80;;;4.32;;
34212;SDS011;20477;51.390;8.102;2023-12-20T13:16:53;13.35;;;4.47;;
34212;SDS011;20477;51.390;8.102;2023-12-20T13:19:20;24.70;;;3.83;;
34212;SDS011;20477;51.390;8.102;2023-12-20T13:21:48;17.60;;;5.53;;
34212;SDS011;20477;51.390;8.102;2023-12-20T13:24:15;14.23;;;3.78;;
34212;SDS011;20477;51.390;8.102;2023-12-20T13:26:43;11.98;;;4.30;;
34212;SDS011;20477;51.390;8.102;2023-12-20T13:29:10;24.50;;;4.90;;
34212;SDS011;20477;51.390;8.102;2023-12-20T13:31:39;17.35;;;3.95;;
34212;SDS011;20477;51.390;8.102;2023-12-20T13:34:06;13.23;;;5.97;;
34212;SDS011;20477;51.390;8.102;2023-12-20T13:36:34;15.00;;;4.15;;
34212;SDS011;20477;51.390;8.102;2023-12-20T13:39:02;16.35;;;3.50;;
34212;SDS011;20477;51.390;8.102;2023-12-20T13:41:29;15.20;;;5.07;;
34212;SDS011;20477;51.390;8.102;2023-12-20T13:43:57;15.77;;;4.88;;
34212;SDS011;20477;51.390;8.102;2023-12-20T13:46:24;15.52;;;4.22;;
34212;SDS011;20477;51.390;8.102;2023-12-20T13:48:52;21.75;;;5.40;;
34212;SDS011;20477;51.390;8.102;2023-12-20T13:51:20;13.52;;;5.28;;
34212;SDS011;20477;51.390;8.102;2023-12-20T13:53:47;11.60;;;3.38;;
34212;SDS011;20477;51.390;8.102;2023-12-20T13:56:15;18.17;;;5.07;;
34212;SDS011;20477;51.390;8.102;2023-12-20T13:58:42;19.15;;;4.90;;
34212;SDS011;20477;51.390;8.102;2023-12-20T14:01:09;13.55;;;3.88;;
34212;SDS011;20477;51.390;8.102;2023-12-20T14:03:37;16.63;;;4.40;;
34212;SDS011;20477;51.390;8.102;2023-12-20T14:06:06;23.38;;;5.68;;
34212;SDS011;20477;51.390;8.102;2023-12-20T14:08:33;13.25;;;3.50;;
34212;SDS011;20477;51.390;8.102;2023-12-20T14:11:00;18.33;;;4.70;;
34212;SDS011;20477;51.390;8.102;2023-12-20T14:13:28;16.15;;;4.68;;
34212;SDS011;20477;51.390;8.102;2023-12-20T14:15:55;26.63;;;9.02;;
34212;SDS011;20477;51.390;8.102;2023-12-20T14:18:22;17.35;;;5.28;;
34212;SDS011;20477;51.390;8.102;2023-12-20T14:20:50;18.33;;;4.60;;
34212;SDS011;20477;51.390;8.102;2023-12-20T14:23:19;13.73;;;4.85;;
34212;SDS011;20477;51.390;8.102;2023-12-20T14:25:46;16.83;;;5.78;;
34212;SDS011;20477;51.390;8.102;2023-12-20T14:28:18;24.10;;;5.43;;
34212;SDS011;20477;51.390;8.102;2023-12-20T14:30:46;17.70;;;4.07;;
34212;SDS011;20477;51.390;8.102;2023-12-20T14:33:13;10.65;;;3.83;;
34212;SDS011;20477;51.390;8.102;2023-12-20T14:35:40;14.43;;;3.67;;
34212;SDS011;20477;51.390;8.102;2023-12-20T14:38:11;10.65;;;3.58;;